CheckWX is a tool to help pilots better visualize weather data.  It is not intended as a substitute for an official pre-flight weather briefing.

00:22:46 UTC

KOEB METAR
Branch County Memorial Airport
Coldwater, Michigan, USA
Current

8 mins ago

KOEB 030015Z AUTO 25009G14KT 10SM CLR 31/17 A2981 RMK AO2
Observed
Jun-3 @ 00:15 UTC
Wind
  • 250° at 9 KTS
  • Gusting to 14 KTS
Visibility
Flight Rules
VFR
Cloud Levels
  • Clear skies
Temperature
31°C / 88°F
Dewpoint
17°C / 63°F
Humidity
43%
Altimeter
29.81" Hg
Pressure
1009.52 hPa
Previous

27 mins ago

KOEB 022356Z AUTO 24009KT 10SM CLR 31/17 A2981 RMK AO2
Observed
Jun-2 @ 23:56 UTC
Wind
  • 240° at 9 KTS
Visibility
Flight Rules
VFR
Cloud Levels
  • Clear skies
Temperature
31°C / 88°F
Dewpoint
17°C / 63°F
Humidity
43%
Altimeter
29.81" Hg
Pressure
1009.52 hPa
Previous

48 mins ago

KOEB 022335Z AUTO 24013G18KT 10SM CLR 32/17 A2981 RMK AO2
Observed
Jun-2 @ 23:35 UTC
Wind
  • 240° at 13 KTS
  • Gusting to 18 KTS
Visibility
Flight Rules
VFR
Cloud Levels
  • Clear skies
Temperature
32°C / 90°F
Dewpoint
17°C / 63°F
Humidity
41%
Altimeter
29.81" Hg
Pressure
1009.52 hPa